Terminal Aerodrome Forecast
Issued by NWS

Home | Current Version | Previous Version | Text Only | Print | Product List | Glossary On
Versions: 1 2 3 4 5 6 7 8 9 10 11 12 13 14 15 16 17 18 19 20
000
FTUS41 KILN 212100 AAA
TAFLUK
TAF AMD
KLUK 212104Z 2121/2218 34005KT P6SM BKN050
     FM220700 35003KT P6SM BKN025
     FM221500 36008KT P6SM SCT035=

USA.gov is the U.S. government's official web portal to all federal, state and local government web resources and services.